createdAt,value
2022-08-14T00:02:05.424Z,99.67
2022-08-14T00:07:11.359Z,99.45
2022-08-14T00:12:23.949Z,99.42
2022-08-14T00:17:28.270Z,99.18
2022-08-14T00:22:56.390Z,99.20
2022-08-14T00:27:56.179Z,99.50
2022-08-14T00:33:16.268Z,99.67
2022-08-14T00:38:19.838Z,99.81
2022-08-14T00:43:21.966Z,100.00
2022-08-14T00:48:34.633Z,100.00
2022-08-14T00:53:42.885Z,100.00
2022-08-14T00:58:48.515Z,100.00
2022-08-14T01:03:53.423Z,100.00
2022-08-14T01:08:59.093Z,100.00
2022-08-14T01:14:04.736Z,100.00
2022-08-14T01:19:39.104Z,100.00
2022-08-14T01:24:44.150Z,100.00
2022-08-14T01:30:03.288Z,100.00
2022-08-14T01:35:19.978Z,100.00
2022-08-14T01:40:36.184Z,100.00
2022-08-14T01:45:48.992Z,100.00
2022-08-14T01:50:51.391Z,100.00
2022-08-14T01:55:57.250Z,100.00
2022-08-14T02:00:59.481Z,100.00
2022-08-14T02:06:03.860Z,100.00
2022-08-14T02:11:25.663Z,100.00
2022-08-14T02:16:32.428Z,100.00
2022-08-14T02:21:43.752Z,100.00
2022-08-14T02:28:18.478Z,100.00
2022-08-14T02:32:30.046Z,100.00
2022-08-14T02:37:45.671Z,100.00
2022-08-14T02:42:54.793Z,100.00
2022-08-14T02:48:01.848Z,100.00
2022-08-14T02:53:04.659Z,100.00
2022-08-14T02:58:10.471Z,100.00
2022-08-14T03:03:31.709Z,100.00
2022-08-14T03:08:39.387Z,100.00
2022-08-14T03:13:51.489Z,100.00
2022-08-14T03:19:00.252Z,100.00
2022-08-14T03:24:07.368Z,100.00
2022-08-14T03:29:24.613Z,100.00
2022-08-14T03:34:52.608Z,100.00
2022-08-14T03:39:58.082Z,100.00
2022-08-14T03:45:26.801Z,100.00
2022-08-14T03:50:27.691Z,100.00
2022-08-14T03:55:33.928Z,100.00
2022-08-14T04:00:47.886Z,100.00
2022-08-14T04:05:50.400Z,100.00
2022-08-14T04:10:54.429Z,100.00
2022-08-14T04:16:01.327Z,100.00
2022-08-14T04:21:04.262Z,100.00
2022-08-14T04:26:14.312Z,100.00
2022-08-14T04:32:59.194Z,100.00
2022-08-14T04:36:59.599Z,100.00
2022-08-14T04:42:20.322Z,100.00
2022-08-14T04:47:46.366Z,100.00
2022-08-14T04:52:48.992Z,100.00
2022-08-14T04:57:56.814Z,100.00
2022-08-14T05:03:03.014Z,100.00
2022-08-14T05:08:31.988Z,100.00
2022-08-14T05:14:06.493Z,100.00
2022-08-14T05:19:17.849Z,100.00
2022-08-14T05:24:26.277Z,100.00
2022-08-14T05:29:28.485Z,100.00
2022-08-14T05:34:32.348Z,100.00
2022-08-14T05:39:35.473Z,100.00
2022-08-14T05:44:38.776Z,100.00
2022-08-14T05:49:40.657Z,100.00
2022-08-14T05:54:43.095Z,100.00
2022-08-14T05:59:46.527Z,100.00
2022-08-14T06:04:49.410Z,100.00
2022-08-14T06:09:52.484Z,100.00
2022-08-14T06:14:54.844Z,100.00
2022-08-14T06:20:02.865Z,100.00
2022-08-14T06:25:08.077Z,100.00
2022-08-14T06:30:16.002Z,100.00
2022-08-14T06:35:20.119Z,100.00
2022-08-14T06:40:42.998Z,100.00
2022-08-14T06:45:54.013Z,100.00
2022-08-14T06:50:57.914Z,100.00
2022-08-14T06:56:02.040Z,100.00
2022-08-14T07:01:27.813Z,100.00
2022-08-14T07:06:46.863Z,100.00
2022-08-14T07:11:51.256Z,100.00
2022-08-14T07:16:53.319Z,100.00
2022-08-14T07:21:56.332Z,100.00
2022-08-14T07:26:59.034Z,99.90
2022-08-14T07:32:01.765Z,99.30
2022-08-14T07:37:06.100Z,98.07
2022-08-14T07:42:08.677Z,97.83
2022-08-14T07:47:11.888Z,96.14
2022-08-14T07:52:14.057Z,96.23
2022-08-14T07:57:25.147Z,95.92
2022-08-14T08:02:31.148Z,95.95
2022-08-14T08:07:36.243Z,96.11
2022-08-14T08:12:42.423Z,94.54
2022-08-14T08:17:53.411Z,92.31
2022-08-14T08:23:06.016Z,88.87
2022-08-14T08:28:19.812Z,89.67
2022-08-14T08:33:32.073Z,89.36
2022-08-14T08:39:14.533Z,87.18
2022-08-14T08:44:05.529Z,85.81
2022-08-14T08:49:10.251Z,86.27
2022-08-14T08:54:18.487Z,86.20
2022-08-14T08:59:31.417Z,83.20
2022-08-14T09:04:53.480Z,83.76
2022-08-14T09:09:59.477Z,84.56
2022-08-14T09:15:11.478Z,83.01
2022-08-14T09:20:25.744Z,82.14
2022-08-14T09:26:00.703Z,81.63
2022-08-14T09:31:07.371Z,81.39
2022-08-14T09:36:57.370Z,80.29
2022-08-14T09:42:49.842Z,80.93
2022-08-14T09:47:55.526Z,80.43
2022-08-14T09:53:17.988Z,80.36
2022-08-14T09:58:24.663Z,80.89
2022-08-14T10:03:36.179Z,81.27
2022-08-14T10:08:51.041Z,81.96
2022-08-14T10:13:58.384Z,83.53
2022-08-14T10:19:23.730Z,84.24
2022-08-14T10:24:36.136Z,84.98
2022-08-14T10:29:46.373Z,86.21
2022-08-14T10:34:52.843Z,87.41
2022-08-14T10:40:05.579Z,88.13
2022-08-14T10:45:25.619Z,88.33
2022-08-14T10:50:33.272Z,88.18
2022-08-14T10:55:44.904Z,88.58
2022-08-14T11:00:57.125Z,87.55
2022-08-14T11:06:00.880Z,87.59
2022-08-14T11:11:16.118Z,87.61
2022-08-14T11:16:28.751Z,88.17
2022-08-14T11:21:36.221Z,89.69
2022-08-14T11:26:44.360Z,91.52
2022-08-14T11:31:51.838Z,93.09
2022-08-14T11:37:17.911Z,93.41
2022-08-14T11:42:58.784Z,92.83
2022-08-14T11:48:12.584Z,92.59
2022-08-14T11:53:21.166Z,93.38
2022-08-14T11:58:30.758Z,93.59
2022-08-14T12:03:51.200Z,92.44
2022-08-14T12:08:56.165Z,92.33
2022-08-14T12:14:13.333Z,92.71
2022-08-14T12:19:56.729Z,92.48
2022-08-14T12:25:00.713Z,91.06
2022-08-14T12:30:05.733Z,90.60
2022-08-14T12:35:09.691Z,89.24
2022-08-14T12:40:15.559Z,88.49
2022-08-14T12:45:33.927Z,86.04
2022-08-14T12:50:42.110Z,81.33
2022-08-14T12:56:22.512Z,81.24
2022-08-14T13:01:31.241Z,84.30
2022-08-14T13:06:37.643Z,86.03
2022-08-14T13:11:58.409Z,87.03
2022-08-14T13:17:03.045Z,88.64
2022-08-14T13:22:10.102Z,89.47
2022-08-14T13:27:28.294Z,89.86
2022-08-14T13:32:44.488Z,90.43
2022-08-14T13:37:53.475Z,90.89
2022-08-14T13:43:02.224Z,91.10
2022-08-14T13:48:04.611Z,91.13
2022-08-14T13:53:12.962Z,90.70
2022-08-14T13:58:33.735Z,89.72
2022-08-14T14:03:39.431Z,88.59
2022-08-14T14:08:50.067Z,88.29
2022-08-14T14:14:00.386Z,87.58
2022-08-14T14:19:09.160Z,86.31
2022-08-14T14:24:15.441Z,88.07
2022-08-14T14:29:24.112Z,87.67
2022-08-14T14:34:32.985Z,86.26
2022-08-14T14:40:54.524Z,87.03
2022-08-14T14:45:15.567Z,87.23
2022-08-14T14:50:20.812Z,87.65
2022-08-14T14:55:54.313Z,88.66
2022-08-14T15:00:55.143Z,89.19
2022-08-14T15:05:58.556Z,89.53
2022-08-14T15:11:00.782Z,89.60
2022-08-14T15:16:04.199Z,90.42
2022-08-14T15:21:08.566Z,91.21
2022-08-14T15:26:24.189Z,91.09
2022-08-14T15:31:36.320Z,91.58
2022-08-14T15:36:43.924Z,90.44
2022-08-14T15:41:48.545Z,90.61
2022-08-14T15:46:54.519Z,90.27
2022-08-14T15:51:59.341Z,90.40
2022-08-14T15:57:08.792Z,89.48
2022-08-14T16:02:10.869Z,88.51
2022-08-14T16:07:14.352Z,88.29
2022-08-14T16:12:19.112Z,88.10
2022-08-14T16:17:22.593Z,87.33
2022-08-14T16:22:58.639Z,87.47
2022-08-14T16:27:54.862Z,86.74
2022-08-14T16:38:45.395Z,83.21
2022-08-14T16:43:54.120Z,83.53
2022-08-14T16:49:06.877Z,84.45
2022-08-14T16:54:34.149Z,83.86
2022-08-14T16:59:52.709Z,83.39
2022-08-14T17:05:24.316Z,83.66
2022-08-14T17:10:28.283Z,83.02
2022-08-14T17:15:31.096Z,83.02
2022-08-14T17:20:53.357Z,83.25
2022-08-14T17:25:58.775Z,83.73
2022-08-14T17:31:03.044Z,84.22
2022-08-14T17:36:23.101Z,84.54
2022-08-14T17:41:35.951Z,85.25
2022-08-14T17:46:43.326Z,85.41
2022-08-14T17:52:01.330Z,85.87
2022-08-14T17:57:10.515Z,86.23
2022-08-14T18:02:22.082Z,86.75
2022-08-14T18:08:00.093Z,86.97
2022-08-14T18:12:47.074Z,87.60
2022-08-14T18:17:54.000Z,87.97
2022-08-14T18:22:57.233Z,88.58
2022-08-14T18:28:01.515Z,89.17
2022-08-14T18:33:23.186Z,89.41
2022-08-14T18:39:00.096Z,89.95
2022-08-14T18:44:02.873Z,90.51
2022-08-14T18:49:17.343Z,91.03
2022-08-14T18:54:32.769Z,91.53
2022-08-14T18:59:39.090Z,92.21
2022-08-14T19:04:43.090Z,92.71
2022-08-14T19:09:58.582Z,93.17
2022-08-14T19:15:08.684Z,93.74
2022-08-14T19:20:12.145Z,93.97
2022-08-14T19:25:47.423Z,94.23
2022-08-14T19:31:37.345Z,94.75
2022-08-14T19:37:05.168Z,95.25
2022-08-14T19:42:14.055Z,95.64
2022-08-14T19:47:49.806Z,96.01
2022-08-14T19:53:16.727Z,96.30
2022-08-14T19:58:28.039Z,96.93
2022-08-14T20:03:59.288Z,97.26
2022-08-14T20:11:03.513Z,97.53
2022-08-14T20:14:30.519Z,98.03
2022-08-14T20:19:34.615Z,98.10
2022-08-14T20:24:44.836Z,98.30
2022-08-14T20:30:34.162Z,98.50
2022-08-14T20:35:55.688Z,98.88
2022-08-14T20:41:23.079Z,98.98
2022-08-14T20:46:42.453Z,98.82
2022-08-14T20:52:19.077Z,98.73
2022-08-14T20:57:54.949Z,99.65
2022-08-14T21:04:04.966Z,100.00
2022-08-14T21:10:04.907Z,100.00
2022-08-14T21:15:27.545Z,100.00
2022-08-14T21:20:42.309Z,100.00
2022-08-14T21:25:44.494Z,100.00
2022-08-14T21:31:18.532Z,100.00
2022-08-14T21:36:47.230Z,100.00
2022-08-14T21:41:58.401Z,100.00
2022-08-14T21:47:00.824Z,100.00
2022-08-14T21:52:52.226Z,100.00
2022-08-14T21:58:46.358Z,100.00
2022-08-14T22:03:55.339Z,100.00
2022-08-14T22:08:59.791Z,100.00
2022-08-14T22:14:25.490Z,100.00
2022-08-14T22:19:47.429Z,100.00
2022-08-14T22:25:01.030Z,100.00
2022-08-14T22:30:13.122Z,100.00
2022-08-14T22:35:16.005Z,100.00
2022-08-14T22:41:02.239Z,100.00
2022-08-14T22:45:55.512Z,100.00
2022-08-14T22:51:03.436Z,100.00
2022-08-14T22:56:20.511Z,100.00
2022-08-14T23:01:57.131Z,100.00
2022-08-14T23:08:59.940Z,100.00
2022-08-14T23:12:54.657Z,100.00
2022-08-14T23:18:03.657Z,100.00
2022-08-14T23:23:22.941Z,100.00
2022-08-14T23:28:34.218Z,100.00
2022-08-14T23:33:52.032Z,100.00
2022-08-14T23:38:56.721Z,100.00
2022-08-14T23:43:58.760Z,100.00
2022-08-14T23:49:01.935Z,100.00
2022-08-14T23:54:05.385Z,100.00
2022-08-14T23:59:27.418Z,100.00
